sensor_id;sensor_type;location;lat;lon;timestamp;P1;durP1;ratioP1;P2;durP2;ratioP2
46633;SDS011;32362;49.986;8.026;2022-10-31T00:09:02;16.23;;;8.55;;
46633;SDS011;32362;49.986;8.026;2022-10-31T00:35:48;12.05;;;8.02;;
46633;SDS011;32362;49.986;8.026;2022-10-31T01:02:30;14.35;;;6.18;;
46633;SDS011;32362;49.986;8.026;2022-10-31T01:29:11;11.25;;;7.22;;
46633;SDS011;32362;49.986;8.026;2022-10-31T01:55:51;14.50;;;7.70;;
46633;SDS011;32362;49.986;8.026;2022-10-31T03:16:45;15.43;;;6.28;;
46633;SDS011;32362;49.986;8.026;2022-10-31T03:43:30;7.38;;;4.85;;
46633;SDS011;32362;49.986;8.026;2022-10-31T04:10:16;13.77;;;6.10;;
46633;SDS011;32362;49.986;8.026;2022-10-31T04:36:59;11.43;;;6.10;;
46633;SDS011;32362;49.986;8.026;2022-10-31T05:03:41;8.60;;;5.80;;
46633;SDS011;32362;49.986;8.026;2022-10-31T05:30:23;8.57;;;5.60;;
46633;SDS011;32362;49.986;8.026;2022-10-31T05:57:06;8.75;;;5.45;;
46633;SDS011;32362;49.986;8.026;2022-10-31T06:23:47;12.32;;;5.70;;
46633;SDS011;32362;49.986;8.026;2022-10-31T06:50:39;10.25;;;6.32;;
46633;SDS011;32362;49.986;8.026;2022-10-31T07:17:23;13.05;;;5.82;;
46633;SDS011;32362;49.986;8.026;2022-10-31T07:44:08;11.27;;;5.80;;
46633;SDS011;32362;49.986;8.026;2022-10-31T08:11:07;13.05;;;6.45;;
46633;SDS011;32362;49.986;8.026;2022-10-31T08:37:51;14.43;;;6.63;;
46633;SDS011;32362;49.986;8.026;2022-10-31T09:04:34;10.07;;;5.35;;
46633;SDS011;32362;49.986;8.026;2022-10-31T09:31:15;13.15;;;5.60;;
46633;SDS011;32362;49.986;8.026;2022-10-31T09:58:18;14.98;;;5.93;;
46633;SDS011;32362;49.986;8.026;2022-10-31T11:18:44;13.90;;;7.25;;
46633;SDS011;32362;49.986;8.026;2022-10-31T11:45:32;17.00;;;7.97;;
46633;SDS011;32362;49.986;8.026;2022-10-31T13:06:04;14.40;;;8.32;;
46633;SDS011;32362;49.986;8.026;2022-10-31T13:59:35;18.63;;;9.02;;
46633;SDS011;32362;49.986;8.026;2022-10-31T14:52:59;14.97;;;8.20;;
46633;SDS011;32362;49.986;8.026;2022-10-31T15:19:43;17.67;;;8.77;;
46633;SDS011;32362;49.986;8.026;2022-10-31T15:46:24;23.52;;;8.75;;
46633;SDS011;32362;49.986;8.026;2022-10-31T16:13:07;27.23;;;9.90;;
46633;SDS011;32362;49.986;8.026;2022-10-31T16:39:48;19.88;;;9.82;;
46633;SDS011;32362;49.986;8.026;2022-10-31T17:06:29;16.37;;;9.23;;
46633;SDS011;32362;49.986;8.026;2022-10-31T17:33:11;29.35;;;13.32;;
46633;SDS011;32362;49.986;8.026;2022-10-31T17:59:53;30.88;;;11.98;;
46633;SDS011;32362;49.986;8.026;2022-10-31T18:26:34;18.60;;;10.82;;
46633;SDS011;32362;49.986;8.026;2022-10-31T18:53:15;22.55;;;12.55;;
46633;SDS011;32362;49.986;8.026;2022-10-31T19:19:55;27.97;;;13.07;;
46633;SDS011;32362;49.986;8.026;2022-10-31T19:46:36;24.50;;;12.68;;
46633;SDS011;32362;49.986;8.026;2022-10-31T20:13:16;24.13;;;13.43;;
46633;SDS011;32362;49.986;8.026;2022-10-31T20:39:57;26.67;;;16.57;;
46633;SDS011;32362;49.986;8.026;2022-10-31T21:06:38;29.07;;;14.80;;
46633;SDS011;32362;49.986;8.026;2022-10-31T21:33:18;24.02;;;15.05;;
46633;SDS011;32362;49.986;8.026;2022-10-31T21:59:59;21.73;;;15.13;;
46633;SDS011;32362;49.986;8.026;2022-10-31T22:26:40;21.45;;;14.02;;
46633;SDS011;32362;49.986;8.026;2022-10-31T22:53:21;25.70;;;15.98;;
46633;SDS011;32362;49.986;8.026;2022-10-31T23:20:02;69.28;;;20.67;;
46633;SDS011;32362;49.986;8.026;2022-10-31T23:46:43;37.97;;;18.42;;
